Time;durP1;ratioP1;P1;durP2;ratioP2;P2;SDS_P1;SDS_P2;PMS_P1;PMS_P2;Temp;Humidity;BMP_temperature;BMP_pressure;BME280_temperature;BME280_humidity;BME280_pressure;Samples;Min_cycle;Max_cycle;Signal;HPM_P1;HPM_P2
2023/08/15 00:02:18;;;;;;;5.97;5.35;;;23.80;99.90;;;25.41;61.45;97534.47;5045441;28;20041;-53
2023/08/15 00:04:46;;;;;;;5.53;4.97;;;23.70;99.90;;;25.34;61.37;97540.16;5043677;28;20058;-55
2023/08/15 00:07:13;;;;;;;5.60;5.00;;;23.60;99.90;;;25.27;61.24;97528.66;5042190;28;20053;-55
2023/08/15 00:09:41;;;;;;;5.93;5.32;;;23.60;99.90;;;25.26;61.76;97534.34;5040193;28;20041;-54
2023/08/15 00:12:09;;;;;;;6.63;5.22;;;23.60;99.90;;;25.23;61.91;97532.16;5044276;28;20049;-54
2023/08/15 00:14:36;;;;;;;6.38;5.80;;;23.50;99.90;;;25.21;61.82;97539.75;5043596;28;20052;-54
2023/08/15 00:17:05;;;;;;;6.28;5.68;;;23.50;99.90;;;25.15;61.33;97523.34;5042830;28;20049;-53
2023/08/15 00:19:33;;;;;;;7.28;5.57;;;23.50;99.90;;;25.13;61.50;97516.50;5040407;28;20054;-55
2023/08/15 00:22:01;;;;;;;7.25;5.18;;;23.40;99.90;;;25.12;61.88;97521.13;5042515;28;20053;-52
2023/08/15 00:24:28;;;;;;;6.90;5.47;;;23.50;99.90;;;25.08;61.84;97519.19;5045034;28;20049;-53
2023/08/15 00:26:56;;;;;;;6.63;5.82;;;23.40;99.90;;;25.07;61.99;97523.81;5042922;28;20041;-55
2023/08/15 00:29:25;;;;;;;8.05;5.85;;;23.40;99.90;;;25.05;61.87;97520.53;5056917;28;20057;-55
2023/08/15 00:31:52;;;;;;;7.30;5.20;;;23.40;99.90;;;25.02;62.26;97523.75;5040664;28;20045;-51
2023/08/15 00:34:21;;;;;;;6.93;6.18;;;23.40;99.90;;;24.98;62.27;97521.81;5044618;28;20429;-55
2023/08/15 00:36:48;;;;;;;5.65;5.15;;;23.30;99.90;;;24.95;62.46;97523.97;5043136;28;20052;-55
2023/08/15 00:39:16;;;;;;;6.45;5.85;;;23.30;99.90;;;24.92;62.05;97516.31;5041070;28;20431;-54
2023/08/15 00:41:44;;;;;;;5.40;4.90;;;23.30;99.90;;;24.92;62.60;97515.50;5040985;28;20042;-51
2023/08/15 00:44:11;;;;;;;8.02;5.28;;;23.30;99.90;;;24.90;62.35;97510.28;5042717;28;20054;-55
2023/08/15 00:46:39;;;;;;;6.50;5.80;;;23.30;99.90;;;24.89;62.30;97510.53;5042766;28;20412;-54
2023/08/15 00:49:07;;;;;;;7.30;5.20;;;23.30;99.90;;;24.88;62.53;97507.00;5041045;28;20056;-53
2023/08/15 00:51:35;;;;;;;7.35;5.10;;;23.30;99.90;;;24.87;62.46;97507.25;5040306;28;20482;-53
2023/08/15 00:54:04;;;;;;;7.20;5.25;;;23.30;99.90;;;24.85;62.26;97502.06;5042289;28;20057;-51
2023/08/15 00:56:32;;;;;;;5.78;5.15;;;23.20;99.90;;;24.83;62.43;97498.78;5043246;28;20056;-54
2023/08/15 00:59:01;;;;;;;5.90;4.90;;;23.20;99.90;;;24.81;62.42;97503.66;5041863;28;20045;-52
2023/08/15 01:01:30;;;;;;;8.02;5.90;;;23.20;99.90;;;24.78;62.63;97504.19;5039558;28;20054;-55
2023/08/15 01:03:59;;;;;;;6.18;5.57;;;23.10;99.90;;;24.76;62.66;97498.19;5039251;28;20049;-53
2023/08/15 01:06:27;;;;;;;7.80;5.32;;;23.10;99.90;;;24.72;62.35;97492.44;5034888;28;20397;-55
2023/08/15 01:08:55;;;;;;;6.18;5.57;;;23.10;99.90;;;24.74;62.65;97493.00;5043365;28;20492;-54
2023/08/15 01:11:32;;;;;;;6.82;5.88;;;23.10;99.90;;;24.73;62.41;97494.06;5014649;28;20049;-55
2023/08/15 01:14:06;;;;;;;5.70;5.20;;;23.10;99.90;;;24.72;62.53;97491.59;5041165;28;20050;-55
2023/08/15 01:16:40;;;;;;;6.65;5.07;;;23.10;99.90;;;24.72;62.15;97495.16;5026193;28;20053;-55
2023/08/15 01:19:32;;;;;;;7.05;5.78;;;23.10;99.90;;;24.73;62.67;97498.69;5040887;28;20044;-55
2023/08/15 01:22:10;;;;;;;6.05;5.45;;;23.10;99.90;;;24.73;62.30;97496.78;5041374;28;20048;-54
2023/08/15 01:24:38;;;;;;;8.23;6.45;;;23.10;99.90;;;24.74;62.55;97503.06;5042066;28;20048;-54
2023/08/15 01:27:06;;;;;;;5.32;4.82;;;23.20;99.90;;;24.76;62.42;97501.72;5041177;28;20048;-55
2023/08/15 01:29:33;;;;;;;5.93;5.30;;;23.20;99.90;;;24.79;62.33;97500.38;5039577;28;20049;-55
2023/08/15 01:32:33;;;;;;;6.80;6.20;;;23.20;99.90;;;24.78;62.17;97498.75;5039993;28;20046;-52
2023/08/15 01:35:24;;;;;;;6.50;5.90;;;23.30;99.90;;;24.80;62.05;97490.34;5041995;28;20164;-53
2023/08/15 01:38:09;;;;;;;6.47;4.88;;;23.20;99.90;;;24.79;62.41;97488.66;5039097;28;20076;-53
2023/08/15 01:40:37;;;;;;;10.68;5.35;;;23.20;99.90;;;24.76;62.12;97498.19;5042275;28;20053;-55
2023/08/15 01:43:08;;;;;;;6.20;5.60;;;23.20;99.90;;;24.74;62.38;97489.44;5024752;28;20516;-54
2023/08/15 01:45:36;;;;;;;9.70;6.82;;;23.10;99.90;;;24.70;62.19;97497.31;5023068;28;20048;-55
2023/08/15 01:48:04;;;;;;;6.63;5.38;;;23.10;99.90;;;24.66;62.20;97498.91;5039441;28;20041;-53
2023/08/15 01:50:31;;;;;;;6.35;5.40;;;23.00;99.90;;;24.62;62.19;97500.50;5041912;28;20048;-53
2023/08/15 01:52:59;;;;;;;7.63;5.85;;;22.90;99.90;;;24.56;62.45;97496.88;5041388;28;20056;-55
2023/08/15 01:55:28;;;;;;;5.88;5.32;;;22.90;99.90;;;24.55;62.35;97492.50;5039994;28;20037;-53
2023/08/15 01:57:56;;;;;;;6.22;5.60;;;22.90;99.90;;;24.52;62.59;97489.47;5022169;28;20045;-51
2023/08/15 02:00:23;;;;;;;7.28;5.68;;;22.90;99.90;;;24.47;62.52;97475.78;5041195;28;20064;-53
2023/08/15 02:02:51;;;;;;;6.82;6.13;;;22.80;99.90;;;24.46;63.01;97485.03;5043272;28;20044;-54
2023/08/15 02:05:19;;;;;;;6.50;4.70;;;22.80;99.90;;;24.44;63.02;97489.91;5022309;28;20052;-54
2023/08/15 02:07:47;;;;;;;6.30;5.63;;;22.80;99.90;;;24.41;62.99;97493.97;5039191;28;20038;-54
2023/08/15 02:10:14;;;;;;;7.75;5.68;;;22.80;99.90;;;24.38;62.99;97497.16;5040101;28;20053;-53
2023/08/15 02:12:42;;;;;;;6.20;5.63;;;22.80;99.90;;;24.34;63.33;97493.31;5043373;28;20053;-54
2023/08/15 02:15:11;;;;;;;7.47;6.15;;;22.70;99.90;;;24.33;63.17;97502.53;5041479;28;20048;-53
2023/08/15 02:17:40;;;;;;;6.80;5.65;;;22.70;99.90;;;24.32;63.29;97492.75;5038855;28;20042;-55
2023/08/15 02:20:08;;;;;;;6.80;6.10;;;22.70;99.90;;;24.32;63.48;97492.75;5023444;28;20227;-53
2023/08/15 02:22:36;;;;;;;6.30;5.70;;;22.70;99.90;;;24.31;63.20;97494.66;5041808;28;20041;-54
2023/08/15 02:25:04;;;;;;;6.43;5.30;;;22.70;99.90;;;24.33;63.40;97494.38;5042673;28;20481;-53
2023/08/15 02:27:32;;;;;;;7.28;6.07;;;22.70;99.90;;;24.33;63.28;97502.53;5038550;28;20041;-55
2023/08/15 02:29:59;;;;;;;6.82;5.72;;;22.70;99.90;;;24.31;63.71;97505.53;5039204;28;20033;-54
2023/08/15 02:32:27;;;;;;;6.70;6.10;;;22.70;99.90;;;24.32;63.34;97490.84;5038391;28;20071;-53
2023/08/15 02:34:55;;;;;;;8.07;6.45;;;22.70;99.90;;;24.33;63.49;97497.94;5037866;28;20508;-53
2023/08/15 02:37:23;;;;;;;6.68;5.82;;;22.70;99.90;;;24.35;63.64;97498.50;5042127;28;20052;-54
2023/08/15 02:39:51;;;;;;;8.95;6.35;;;22.80;99.90;;;24.33;63.74;97489.78;5035915;28;20049;-55
2023/08/15 02:42:18;;;;;;;8.27;5.72;;;22.80;99.90;;;24.33;63.81;97487.06;5033248;28;20048;-55
2023/08/15 02:44:46;;;;;;;9.05;6.25;;;22.80;99.90;;;24.33;63.65;97488.94;5042899;28;20041;-52
2023/08/15 02:47:14;;;;;;;8.27;6.00;;;22.80;99.90;;;24.31;63.88;97486.50;5041096;28;20048;-52
2023/08/15 02:49:42;;;;;;;7.85;6.63;;;22.70;99.90;;;24.29;63.57;97490.53;5037772;28;20054;-54
2023/08/15 02:52:11;;;;;;;7.55;6.70;;;22.60;99.90;;;24.27;63.92;97488.09;5038326;28;20037;-53
2023/08/15 02:54:39;;;;;;;8.07;6.43;;;22.60;99.90;;;24.27;63.77;97484.50;5042532;28;20037;-55
2023/08/15 02:57:06;;;;;;;6.80;5.78;;;22.60;99.90;;;24.29;64.14;97482.38;5040768;28;20451;-55
2023/08/15 02:59:34;;;;;;;8.05;6.57;;;22.70;99.90;;;24.29;64.43;97482.38;5038231;28;20052;-54
2023/08/15 03:02:02;;;;;;;9.10;7.28;;;22.70;99.90;;;24.30;64.05;97476.69;5038910;28;20040;-55
2023/08/15 03:04:29;;;;;;;8.18;6.32;;;22.70;99.90;;;24.30;64.18;97473.13;5037529;28;20053;-55
2023/08/15 03:06:57;;;;;;;8.32;6.95;;;22.70;99.90;;;24.29;64.29;97480.50;5039222;28;20052;-55
2023/08/15 03:09:25;;;;;;;7.15;6.30;;;22.60;99.90;;;24.29;64.45;97485.09;5038810;28;20038;-54
2023/08/15 03:11:52;;;;;;;7.05;6.20;;;22.60;99.90;;;24.29;64.32;97485.09;5038176;28;20052;-50
2023/08/15 03:14:20;;;;;;;10.98;5.88;;;22.70;99.90;;;24.29;64.51;97496.81;5039994;28;20045;-53
2023/08/15 03:16:47;;;;;;;7.53;5.75;;;22.70;99.90;;;24.24;64.28;97495.91;5041625;28;20045;-53
2023/08/15 03:19:15;;;;;;;8.38;6.07;;;22.60;99.90;;;24.17;64.51;97499.66;5039339;28;20429;-54
2023/08/15 03:21:42;;;;;;;7.07;6.32;;;22.60;99.90;;;24.19;64.46;97499.38;5038838;28;20489;-50
2023/08/15 03:24:11;;;;;;;8.05;6.47;;;22.60;99.90;;;24.23;64.63;97502.41;5037956;28;20494;-49
2023/08/15 03:26:38;;;;;;;8.07;6.18;;;22.70;99.90;;;24.23;64.58;97496.97;5036491;28;20046;-55
2023/08/15 03:29:06;;;;;;;7.60;6.72;;;22.60;99.90;;;24.23;64.52;97511.41;5039561;28;20033;-53
2023/08/15 03:31:34;;;;;;;7.10;6.07;;;22.60;99.90;;;24.20;64.88;97509.19;5033667;28;20042;-52
2023/08/15 03:34:02;;;;;;;6.78;6.05;;;22.60;99.90;;;24.16;64.79;97510.78;5058352;28;20054;-53
2023/08/15 03:36:30;;;;;;;8.27;7.30;;;22.50;99.90;;;24.15;64.78;97509.94;5044725;28;20052;-54
2023/08/15 03:38:57;;;;;;;7.60;6.88;;;22.50;99.90;;;24.14;64.72;97510.22;5044284;28;20268;-53
2023/08/15 03:41:25;;;;;;;8.15;7.30;;;22.60;99.90;;;24.13;64.61;97505.84;5041528;28;20056;-54
2023/08/15 03:43:53;;;;;;;10.00;6.38;;;22.60;99.90;;;24.12;64.81;97507.75;5049889;28;20057;-51
2023/08/15 03:46:20;;;;;;;7.35;6.30;;;22.60;99.90;;;24.13;64.66;97516.72;5042456;28;20049;-52
2023/08/15 03:48:48;;;;;;;7.53;6.40;;;22.50;99.90;;;24.13;64.66;97516.72;5025122;28;20417;-53
2023/08/15 03:51:16;;;;;;;9.20;6.65;;;22.50;99.90;;;24.09;64.70;97521.00;5025161;28;20053;-54
2023/08/15 03:54:04;;;;;;;8.65;7.00;;;22.40;99.90;;;24.06;64.87;97522.34;5044933;28;20049;-53
2023/08/15 03:56:32;;;;;;;8.00;6.68;;;22.40;99.90;;;24.06;64.80;97533.22;5024803;28;20053;-52
2023/08/15 03:58:59;;;;;;;6.82;6.13;;;22.40;99.90;;;24.03;64.41;97531.00;5041470;28;20420;-55
2023/08/15 04:01:28;;;;;;;7.45;6.40;;;22.40;99.90;;;24.02;64.41;97531.22;5042337;28;20571;-54
2023/08/15 04:03:56;;;;;;;7.82;6.45;;;22.40;99.90;;;24.02;64.49;97544.81;5028004;28;20044;-53
2023/08/15 04:06:24;;;;;;;7.53;6.53;;;22.40;99.90;;;23.96;64.47;97544.78;5044095;28;20425;-55
2023/08/15 04:08:52;;;;;;;7.35;5.70;;;22.30;99.90;;;23.92;64.63;97542.78;5045197;28;20037;-54
2023/08/15 04:11:19;;;;;;;9.73;5.90;;;22.30;99.90;;;23.90;64.67;97543.03;5043854;28;20045;-55
2023/08/15 04:13:47;;;;;;;10.20;6.78;;;22.20;99.90;;;23.85;64.71;97540.25;5024842;28;20060;-53
2023/08/15 04:16:15;;;;;;;9.75;6.88;;;22.20;99.90;;;23.83;64.78;97544.31;5040283;28;20052;-53
2023/08/15 04:18:42;;;;;;;8.38;6.88;;;22.10;99.90;;;23.81;64.70;97541.81;5036617;28;20497;-54
2023/08/15 04:21:11;;;;;;;7.88;7.15;;;22.10;99.90;;;23.82;64.70;97545.38;5035702;28;20421;-53
2023/08/15 04:23:39;;;;;;;7.45;6.07;;;22.10;99.90;;;23.77;64.85;97544.19;5032810;28;20410;-54
2023/08/15 04:26:06;;;;;;;9.00;6.93;;;22.10;99.90;;;23.76;64.79;97539.00;5057324;28;20485;-52
2023/08/15 04:28:34;;;;;;;9.73;7.22;;;22.10;99.90;;;23.76;64.84;97536.28;5043583;28;20416;-51
2023/08/15 04:31:03;;;;;;;8.00;7.25;;;22.10;99.90;;;23.74;64.83;97535.69;5043804;28;20409;-54
2023/08/15 04:33:31;;;;;;;6.95;6.35;;;22.10;99.90;;;23.75;64.96;97534.66;5036061;28;20045;-54
2023/08/15 04:35:58;;;;;;;10.07;6.72;;;22.10;99.90;;;23.74;65.00;97543.84;5021558;28;20345;-53
2023/08/15 04:38:27;;;;;;;8.82;6.95;;;22.00;99.90;;;23.73;65.18;97539.47;5041679;28;20060;-55
2023/08/15 04:40:55;;;;;;;8.07;6.95;;;22.00;99.90;;;23.70;65.14;97537.28;5042496;28;20045;-52
2023/08/15 04:43:26;;;;;;;9.07;6.43;;;22.00;99.90;;;23.72;65.02;97549.53;5041937;28;20056;-49
2023/08/15 04:45:54;;;;;;;7.68;6.55;;;22.10;99.90;;;23.73;65.04;97553.06;5041246;28;20072;-52
2023/08/15 04:48:23;;;;;;;8.20;6.43;;;22.10;99.90;;;23.77;64.88;97548.81;5040636;28;20045;-54
2023/08/15 04:50:51;;;;;;;8.23;6.60;;;22.20;99.90;;;23.75;64.91;97545.53;5044597;28;20045;-54
2023/08/15 04:53:19;;;;;;;7.28;6.15;;;22.20;99.90;;;23.77;64.71;97559.69;5025977;28;20505;-54
2023/08/15 04:55:48;;;;;;;6.68;5.70;;;22.20;99.90;;;23.80;64.64;97569.25;5040270;28;20057;-55
2023/08/15 04:58:16;;;;;;;7.38;6.55;;;22.20;99.90;;;23.82;64.87;97578.78;5040269;28;20041;-54
2023/08/15 05:00:44;;;;;;;10.80;7.20;;;22.20;99.90;;;23.83;64.85;97588.63;5042542;28;20063;-53
2023/08/15 05:03:12;;;;;;;7.55;6.72;;;22.30;99.90;;;23.86;64.93;97579.94;5018888;28;20056;-53
2023/08/15 05:05:39;;;;;;;11.95;6.95;;;22.30;99.90;;;23.88;64.89;97583.22;5044149;28;20037;-55
2023/08/15 05:08:07;;;;;;;7.88;6.40;;;22.30;99.90;;;23.91;64.85;97588.19;5042728;28;20045;-52
2023/08/15 05:10:35;;;;;;;8.38;5.70;;;22.40;99.90;;;23.96;64.96;97584.72;5039658;28;20051;-53
2023/08/15 05:13:03;;;;;;;8.10;5.90;;;22.50;99.90;;;24.01;65.08;97583.97;5040355;28;20049;-52
2023/08/15 05:15:31;;;;;;;7.95;6.40;;;22.50;99.90;;;24.04;64.64;97591.63;5041047;28;20049;-53
2023/08/15 05:17:59;;;;;;;8.20;6.13;;;22.50;99.90;;;24.04;64.67;97587.03;5042610;28;20047;-56
2023/08/15 05:20:27;;;;;;;7.05;6.22;;;22.50;99.90;;;24.09;65.08;97592.53;5040805;28;20053;-56
2023/08/15 05:22:55;;;;;;;7.95;6.13;;;22.60;99.90;;;24.12;65.03;97608.34;5039436;28;20053;-56
2023/08/15 05:25:23;;;;;;;7.55;6.40;;;22.70;99.90;;;24.13;65.11;97599.09;5032633;28;20042;-61
2023/08/15 05:27:50;;;;;;;7.80;6.32;;;22.70;99.90;;;24.15;64.62;97604.31;5038424;28;20516;-56
2023/08/15 05:30:18;;;;;;;7.47;6.03;;;22.70;99.90;;;24.17;64.51;97602.16;5040166;28;20057;-56
2023/08/15 05:32:46;;;;;;;8.60;6.18;;;22.80;99.90;;;24.20;64.42;97603.56;5031035;28;20041;-56
2023/08/15 05:35:14;;;;;;;8.13;5.72;;;22.80;99.90;;;24.18;63.99;97607.34;5039317;28;20061;-55
2023/08/15 05:37:42;;;;;;;7.68;6.88;;;22.80;99.90;;;24.20;64.24;97615.25;5041867;28;20049;-56
2023/08/15 05:40:10;;;;;;;8.65;6.82;;;22.80;99.90;;;24.17;64.35;97615.75;5036416;28;20038;-56
2023/08/15 05:42:38;;;;;;;8.85;6.78;;;22.80;99.90;;;24.18;64.15;97628.28;5041046;28;20053;-56
2023/08/15 05:45:06;;;;;;;8.35;6.25;;;22.80;99.90;;;24.21;64.25;97624.25;5043491;28;20037;-56
2023/08/15 05:47:34;;;;;;;7.90;7.15;;;22.80;99.90;;;24.26;63.87;97624.31;5041789;28;20408;-56
2023/08/15 05:50:03;;;;;;;10.57;6.00;;;22.90;99.90;;;24.24;63.84;97637.34;5038515;28;20041;-56
2023/08/15 05:52:30;;;;;;;10.25;7.03;;;22.80;99.90;;;24.22;64.03;97631.34;5038374;28;20524;-55
2023/08/15 05:54:58;;;;;;;7.05;6.35;;;22.80;99.90;;;24.26;63.92;97633.28;5037109;28;20044;-55
2023/08/15 05:57:26;;;;;;;6.22;5.63;;;22.90;99.90;;;24.29;63.83;97627.38;5034232;28;20053;-54
2023/08/15 05:59:53;;;;;;;9.25;5.88;;;22.90;99.90;;;24.26;63.51;97637.94;5038748;28;20046;-56
2023/08/15 06:02:21;;;;;;;6.15;5.53;;;22.90;99.90;;;24.20;63.59;97637.03;5040671;28;20049;-56
2023/08/15 06:04:49;;;;;;;6.80;6.15;;;22.80;99.90;;;24.16;63.69;97631.25;5039942;28;20041;-56
2023/08/15 06:07:16;;;;;;;11.02;6.28;;;22.80;99.90;;;24.17;64.09;97642.94;5039988;28;20056;-56
2023/08/15 06:09:44;;;;;;;9.05;6.25;;;22.80;99.90;;;24.22;63.76;97634.88;5042385;28;20044;-56
2023/08/15 06:12:12;;;;;;;6.63;5.97;;;22.80;99.90;;;24.25;63.88;97645.25;5042056;28;20040;-56
2023/08/15 06:14:41;;;;;;;12.40;6.85;;;22.90;99.90;;;24.28;63.72;97643.94;5039010;28;20056;-56
2023/08/15 06:17:11;;;;;;;6.47;5.88;;;22.90;99.90;;;24.31;63.60;97636.09;5040512;28;20417;-55
2023/08/15 06:19:39;;;;;;;13.90;6.40;;;22.90;99.90;;;24.34;63.38;97645.66;5040745;28;20057;-56
2023/08/15 06:22:07;;;;;;;8.23;6.97;;;22.90;99.90;;;24.31;63.12;97643.41;5043113;28;20044;-57
2023/08/15 06:24:34;;;;;;;7.80;5.72;;;22.90;99.90;;;24.33;63.20;97638.56;5041568;28;20048;-56
2023/08/15 06:27:03;;;;;;;9.93;5.40;;;23.00;99.90;;;24.31;62.52;97646.97;5039186;28;20489;-54
2023/08/15 06:29:30;;;;;;;8.68;5.95;;;23.00;99.90;;;24.23;62.07;97652.00;5040227;28;20409;-55
2023/08/15 06:31:59;;;;;;;5.82;5.22;;;23.00;99.90;;;24.19;61.78;97657.13;5042413;28;20040;-56
2023/08/15 06:34:27;;;;;;;7.35;5.55;;;23.00;99.00;;;24.12;61.77;97657.31;5042757;28;20045;-56
2023/08/15 06:36:54;;;;;;;7.88;6.45;;;23.00;99.60;;;24.06;62.38;97666.47;5038235;28;20045;-54
2023/08/15 06:39:22;;;;;;;7.65;6.15;;;22.90;99.90;;;24.05;62.59;97655.81;5039556;28;20054;-56
2023/08/15 06:41:50;;;;;;;10.85;5.88;;;22.90;99.90;;;23.95;62.41;97665.44;5041198;28;20048;-56
2023/08/15 06:44:18;;;;;;;7.82;6.50;;;22.80;99.90;;;23.90;62.86;97664.53;5042990;28;20045;-56
2023/08/15 06:46:45;;;;;;;10.52;5.82;;;22.80;99.90;;;23.92;63.24;97674.13;5039847;28;20424;-56
2023/08/15 06:49:14;;;;;;;6.60;5.72;;;22.80;99.90;;;24.16;63.05;97676.66;5038352;28;20053;-56
2023/08/15 06:51:41;;;;;;;7.78;5.75;;;23.00;99.90;;;24.29;62.90;97681.78;5040971;28;20515;-54
2023/08/15 06:54:09;;;;;;;8.38;6.97;;;23.10;99.90;;;24.41;62.41;97683.56;5036960;28;20038;-57
2023/08/15 06:56:36;;;;;;;7.40;6.25;;;23.20;99.90;;;24.44;62.49;97683.88;5040671;28;20068;-56
2023/08/15 06:59:04;;;;;;;8.10;7.00;;;23.20;99.90;;;24.50;62.51;97684.78;5043006;28;20037;-54
2023/08/15 07:01:32;;;;;;;8.70;6.78;;;23.30;99.90;;;24.59;62.41;97683.31;5041676;28;20049;-55
2023/08/15 07:03:59;;;;;;;9.18;6.45;;;23.40;99.90;;;24.67;62.56;97684.78;5040100;28;20041;-55
2023/08/15 07:06:27;;;;;;;9.77;6.90;;;23.40;99.90;;;24.76;62.33;97692.25;5043300;28;20049;-56
2023/08/15 07:08:55;;;;;;;11.55;6.82;;;23.60;99.90;;;24.87;62.47;97695.97;5033670;28;20045;-55
2023/08/15 07:11:23;;;;;;;7.00;6.30;;;23.60;99.90;;;24.98;62.45;97696.09;5043064;28;20472;-54
2023/08/15 07:13:50;;;;;;;7.97;7.18;;;23.70;99.90;;;25.04;62.23;97708.69;5046165;28;20412;-55
2023/08/15 07:16:18;;;;;;;8.15;6.75;;;23.80;99.90;;;25.05;62.36;97700.28;5045827;28;20045;-54
2023/08/15 07:18:46;;;;;;;10.82;6.53;;;23.80;99.90;;;25.11;62.00;97693.81;5038298;28;20069;-56
2023/08/15 07:21:13;;;;;;;7.95;7.15;;;23.80;99.90;;;25.08;61.96;97697.03;5046275;28;20044;-57
2023/08/15 07:23:43;;;;;;;9.20;6.80;;;23.80;99.90;;;25.08;61.87;97701.66;5044566;28;20044;-55
2023/08/15 07:26:11;;;;;;;8.55;7.20;;;23.70;99.90;;;25.10;61.71;97707.66;5042410;28;20050;-57
2023/08/15 07:28:38;;;;;;;10.82;7.50;;;23.80;99.90;;;25.12;61.91;97705.50;5042496;28;20041;-57
2023/08/15 07:31:06;;;;;;;8.43;7.13;;;23.80;99.90;;;25.17;61.84;97713.75;5045071;28;20033;-56
2023/08/15 07:33:33;;;;;;;10.35;7.70;;;23.90;99.90;;;25.21;61.56;97714.88;5060304;28;20056;-57
2023/08/15 07:36:01;;;;;;;8.77;7.57;;;23.90;99.90;;;25.28;61.75;97714.72;5043028;28;20045;-56
2023/08/15 07:38:29;;;;;;;13.52;8.05;;;23.90;99.90;;;25.26;61.93;97712.28;5042692;28;20060;-56
2023/08/15 07:40:57;;;;;;;10.10;6.57;;;23.90;99.90;;;25.26;61.84;97712.28;5042592;28;20049;-57
2023/08/15 07:43:25;;;;;;;10.27;7.07;;;23.90;99.90;;;25.27;61.62;97705.72;5042877;28;20049;-55
2023/08/15 07:45:52;;;;;;;8.52;7.63;;;23.90;99.90;;;25.30;61.69;97701.66;5045205;28;20535;-55
2023/08/15 07:48:20;;;;;;;10.68;7.82;;;24.00;99.90;;;25.34;61.94;97700.09;5045609;28;20048;-56
2023/08/15 07:50:47;;;;;;;11.63;8.38;;;24.00;99.90;;;25.37;61.84;97706.94;5043325;28;20045;-57
2023/08/15 07:53:15;;;;;;;9.68;8.68;;;24.00;99.90;;;25.37;61.78;97701.47;5057860;28;20041;-55
2023/08/15 07:55:43;;;;;;;8.40;7.57;;;24.00;99.90;;;25.41;61.87;97699.88;5043544;28;20493;-57
2023/08/15 07:58:10;;;;;;;12.88;7.95;;;24.00;99.90;;;25.37;61.87;97701.47;5044818;28;20196;-57
2023/08/15 08:00:38;;;;;;;10.60;8.77;;;24.00;99.90;;;25.35;61.72;97708.00;5044544;28;20053;-56
2023/08/15 08:03:06;;;;;;;11.32;8.48;;;24.00;99.90;;;25.36;61.79;97703.38;5041266;28;20041;-56
2023/08/15 08:05:35;;;;;;;12.50;8.18;;;24.00;99.90;;;25.38;62.29;97703.09;5042121;28;20046;-57
2023/08/15 08:08:03;;;;;;;9.48;8.32;;;24.00;99.90;;;25.40;61.82;97690.09;5044463;28;20489;-56
2023/08/15 08:10:31;;;;;;;12.32;8.32;;;24.00;99.90;;;25.40;61.95;97696.34;5045166;28;20489;-57
2023/08/15 08:13:02;;;;;;;11.65;9.15;;;24.00;99.90;;;25.40;62.15;97696.34;5041994;28;20045;-55
2023/08/15 08:15:30;;;;;;;8.77;7.88;;;24.00;99.90;;;25.40;62.47;97688.16;5042070;28;20045;-54
2023/08/15 08:17:57;;;;;;;11.73;8.43;;;24.00;99.90;;;25.42;62.66;97691.47;5044989;28;20049;-57
2023/08/15 08:20:26;;;;;;;14.40;8.63;;;24.00;99.90;;;25.44;62.70;97688.50;5043810;28;20515;-56
2023/08/15 08:22:54;;;;;;;10.63;8.55;;;24.10;99.90;;;25.50;62.48;97682.81;5042700;28;20041;-57
2023/08/15 08:25:24;;;;;;;9.82;8.43;;;24.20;99.90;;;25.57;62.21;97681.78;5042047;28;20045;-57
2023/08/15 08:27:51;;;;;;;15.43;8.63;;;24.30;99.90;;;25.64;62.09;97683.22;5043770;28;20508;-57
2023/08/15 08:30:21;;;;;;;13.18;8.23;;;24.40;99.90;;;25.76;62.10;97684.97;5039378;28;20041;-57
2023/08/15 08:32:52;;;;;;;8.18;7.38;;;24.60;99.90;;;25.84;61.94;97682.63;5041518;28;20044;-57
2023/08/15 08:35:20;;;;;;;8.75;7.78;;;24.70;99.90;;;25.96;62.17;97695.28;5041782;28;20045;-56
2023/08/15 08:37:48;;;;;;;8.02;7.22;;;24.80;99.90;;;26.04;61.83;97692.91;5043041;28;20049;-55
2023/08/15 08:40:17;;;;;;;9.68;7.50;;;25.00;99.90;;;26.09;61.27;97686.66;5043510;28;20041;-56
2023/08/15 08:42:45;;;;;;;12.02;7.22;;;25.10;98.10;;;26.15;61.10;97687.53;5043904;28;20055;-57
2023/08/15 08:45:12;;;;;;;9.80;7.15;;;25.20;97.60;;;26.18;61.34;97687.81;5041567;28;20041;-57
2023/08/15 08:47:41;;;;;;;8.57;7.43;;;25.20;97.30;;;26.20;61.58;97687.56;5041739;28;20358;-57
2023/08/15 08:50:11;;;;;;;8.48;7.65;;;25.20;97.20;;;26.22;61.58;97688.13;5044877;28;20037;-57
2023/08/15 08:52:41;;;;;;;9.48;8.18;;;25.30;97.60;;;26.26;61.32;97690.06;5043377;28;20437;-57
2023/08/15 08:55:09;;;;;;;11.52;7.15;;;25.30;97.80;;;26.31;61.47;97698.28;5037151;28;20048;-57
2023/08/15 08:57:39;;;;;;;8.20;7.38;;;25.30;98.00;;;26.38;61.66;97699.97;5044964;28;20413;-56
2023/08/15 09:00:09;;;;;;;11.35;7.63;;;25.40;97.90;;;26.43;61.27;97700.03;5032042;28;20058;-57
2023/08/15 09:02:37;;;;;;;10.05;7.43;;;25.40;97.60;;;26.49;61.58;97707.16;5041226;28;20042;-56
2023/08/15 09:05:09;;;;;;;8.13;6.70;;;25.50;97.20;;;26.53;60.86;97700.06;5032645;28;20508;-57
2023/08/15 09:07:36;;;;;;;14.13;7.25;;;25.50;96.70;;;26.61;61.02;97702.34;5041098;28;20045;-57
2023/08/15 09:10:06;;;;;;;10.85;7.13;;;25.60;96.20;;;26.66;60.78;97702.38;5042660;28;20045;-57
2023/08/15 09:12:38;;;;;;;10.00;7.13;;;25.70;95.20;;;26.73;60.08;97706.78;5043397;28;20053;-57
2023/08/15 09:15:08;;;;;;;10.32;7.25;;;25.70;94.80;;;26.76;60.13;97700.81;5044209;28;20041;-57
2023/08/15 09:17:38;;;;;;;9.80;6.50;;;25.80;94.00;;;26.77;60.10;97702.44;5044238;28;20053;-57
2023/08/15 09:20:13;;;;;;;8.75;6.53;;;25.80;94.00;;;26.80;60.34;97712.84;5024330;28;20049;-57
2023/08/15 09:22:45;;;;;;;9.02;6.60;;;25.80;94.00;;;26.83;60.20;97712.28;5040746;28;20045;-56
2023/08/15 09:25:20;;;;;;;8.18;6.50;;;25.80;94.20;;;26.88;60.32;97713.13;5044259;28;20048;-57
2023/08/15 09:27:47;;;;;;;9.77;6.97;;;25.90;93.80;;;26.94;59.61;97719.44;5042859;28;20049;-56
2023/08/15 09:30:16;;;;;;;7.50;6.22;;;26.00;93.90;;;26.96;59.67;97716.47;5040229;28;20052;-57
2023/08/15 09:32:46;;;;;;;8.73;6.50;;;26.00;93.40;;;27.01;59.47;97713.78;5038577;28;20045;-56
2023/08/15 09:35:17;;;;;;;7.78;6.40;;;26.00;93.10;;;27.04;59.07;97721.41;5040617;28;20470;-57
2023/08/15 09:37:49;;;;;;;9.13;7.55;;;26.00;92.00;;;27.08;59.03;97717.06;5039791;28;20065;-57
2023/08/15 09:40:19;;;;;;;7.53;6.25;;;26.00;90.50;;;27.09;58.00;97716.78;5042228;28;20036;-57
2023/08/15 09:42:46;;;;;;;6.38;5.75;;;26.10;89.90;;;27.16;57.68;97710.25;5043241;28;20045;-57
2023/08/15 09:45:16;;;;;;;7.38;6.05;;;26.10;89.20;;;27.23;57.75;97710.84;5040499;28;20037;-57
2023/08/15 09:47:45;;;;;;;8.77;6.82;;;26.20;88.70;;;27.30;57.66;97712.28;5039981;28;20045;-58
2023/08/15 09:50:15;;;;;;;10.85;7.43;;;26.30;88.10;;;27.37;56.82;97711.19;5039987;28;20041;-57
2023/08/15 09:52:45;;;;;;;6.80;6.05;;;26.40;86.70;;;27.43;56.36;97704.66;5040665;28;20065;-57
2023/08/15 09:55:17;;;;;;;7.22;5.07;;;26.40;85.20;;;27.47;54.62;97709.31;5033266;28;20501;-57
2023/08/15 09:57:46;;;;;;;7.80;6.25;;;26.50;81.30;;;27.54;53.57;97717.25;5039292;28;20399;-57
2023/08/15 10:00:16;;;;;;;7.95;6.32;;;26.60;75.80;;;27.62;53.75;97718.66;5041869;28;20497;-57
2023/08/15 10:03:12;;;;;;;9.18;4.90;;;26.70;78.20;;;27.71;53.78;97711.56;5043544;28;20048;-56
2023/08/15 10:05:45;;;;;;;7.90;5.70;;;26.80;76.00;;;27.79;53.23;97712.94;5019825;28;20037;-57
2023/08/15 10:08:13;;;;;;;;;;;26.90;77.00;;;27.84;54.53;97712.94;5010931;28;20512;-57
2023/08/15 10:10:42;;;;;;;9.80;5.32;;;26.90;72.50;;;27.92;52.90;97717.06;5025104;28;19932;-57
2023/08/15 10:13:10;;;;;;;7.05;5.72;;;26.90;77.20;;;27.94;52.55;97717.66;5030469;28;20052;-57
2023/08/15 10:15:39;;;;;;;8.98;5.88;;;26.90;76.30;;;27.99;51.96;97726.66;5022219;28;20064;-57
2023/08/15 10:18:06;;;;;;;8.23;5.95;;;27.00;75.90;;;28.04;51.72;97725.88;5042547;28;20047;-57
2023/08/15 10:20:36;;;;;;;6.47;5.15;;;27.10;74.80;;;28.08;51.52;97729.69;5041207;28;20045;-57
2023/08/15 10:23:09;;;;;;;8.45;6.03;;;27.20;74.40;;;28.10;51.47;97722.03;5040582;28;20041;-57
2023/08/15 10:25:40;;;;;;;8.35;5.20;;;27.20;74.30;;;28.14;51.38;97731.34;5037227;28;20044;-57